Hattiesburg Laurel Regional Airport Hattiesburg,Laurel US
ICAO: KPIB
IATA: PIB
Category: Medium
Scheduled Services: Yes

Elevation: 298 ft
TransAlt. 18000 ft.

Airport Communications:
AWOS 3:128.325
HOUSTON CNTR:126.8
CTAF/UNICOM:123

KPIB Zoom In..

If you have problems with the map follow the link
https://www.worldairports.se/pages/airport.php?
ICAO=KPIB

Runways:

(A) RW 18 length 6502 ft width 150 ft
ILS 109.50 / hdg 181

(B) RW 36 length 6502 ft width 150 ft
---- / hdg 1

Location; KPIB
Day. 14 / Time. 20.56 Zulu
* Altimeter: 29.81
* Temperature: 14° c. 57.2°f.
* Wind from: 220° Speed 06 kn.
Dewpoint: 07° c.
Visibility: 10 Statute Miles.
Clouds: Overcast 4000 ft.

KPIB 142056Z AUTO 22006KT 10SM OVC040 14/07 A2981 RMK AO2 SLP094 60000 T01390072 55007


Wind From 220°
Speed 06 kn.

 
 
jpsmedia.com for Web Design worldairports.se 2018   terms of use